Latest Weather Observations for Mount Crawford

IDS60801

Issued at 3:31 am CDT Tuesday 21 November 2017 (issued every 30 minutes, with the page automatically refreshed every 10 minutes)

About weather observations | Map of weather stations | Latest weather observations for SA | Other Formats
Station Details ID: 023878 Name: MOUNT CRAWFORD AWS Lat: -34.73 Lon: 138.93 Height: 525.0 m
Data from the previous 72 hours. | See also: Recent months at Mount Crawford
Date/Time
CDT
Temp
°C
App
Temp
°C
Dew
Point
°C
Rel
Hum
%
Delta-T
°C
Wind Press
QNH
hPa
Press
MSL
hPa
Rain since
9am
mm
Dir  Spd
km/h
Gust
km/h
Spd
kts
Gust
kts
21/03:30am 21.0 14.3 8.0 43 6.9 ENE 33 43 18 23 1015.9 1014.5 0.0
21/03:00am 21.2 14.7 8.1 43 7.0 ENE 32 39 17 21 1015.9 1014.5 0.0
21/02:30am 21.3 15.9 8.2 43 7.0 ENE 26 32 14 17 1015.9 1014.5 0.0
21/02:00am 21.5 15.8 8.4 43 7.1 ENE 28 32 15 17 1015.9 1014.5 0.0
21/01:30am 22.4 16.3 8.1 40 7.7 NE 30 37 16 20 1016.0 1014.6 0.0
21/01:00am 22.6 16.1 8.3 40 7.7 NE 32 39 17 21 1016.2 1014.9 0.0
21/12:30am 22.4 16.3 8.1 40 7.7 ENE 30 39 16 21 1016.4 1015.1 0.0
21/12:00am 22.6 16.4 8.0 39 7.9 ENE 30 35 16 19 1016.4 1015.1 0.0
 
Date/Time
CDT
Temp
°C
App
Temp
°C
Dew
Point
°C
Rel
Hum
%
Delta-T
°C
Wind Press
QNH
hPa
Press
MSL
hPa
Rain since
9am
mm
Dir  Spd
km/h
Gust
km/h
Spd
kts
Gust
kts
20/11:30pm 22.7 16.5 8.0 39 7.9 ENE 30 35 16 19 1016.4 1015.1 0.0
20/11:00pm 23.3 17.1 7.8 37 8.4 ENE 30 35 16 19 1016.4 1015.1 0.0
20/10:30pm 23.4 17.5 7.5 36 8.5 ENE 28 37 15 20 1016.4 1015.1 0.0
20/10:00pm 24.1 17.9 7.7 35 8.9 ENE 30 39 16 21 1016.4 1015.1 0.0
20/09:30pm 24.6 18.7 7.7 34 9.1 ENE 28 37 15 20 1016.2 1014.9 0.0
20/09:00pm 24.8 19.3 7.4 33 9.4 ENE 26 35 14 19 1015.9 1014.5 0.0
20/08:30pm 25.4 20.3 7.5 32 9.7 ENE 24 32 13 17 1015.7 1014.3 0.0
20/08:00pm 25.5 20.5 8.1 33 9.5 ENE 24 35 13 19 1015.5 1014.1 0.0
20/07:30pm 26.3 21.4 8.3 32 9.9 ENE 24 37 13 20 1015.4 1014.0 0.0
20/07:00pm 27.0 21.3 8.4 31 10.3 NE 28 39 15 21 1015.2 1013.8 0.0
20/06:30pm 27.5 21.1 8.4 30 10.6 NE 32 43 17 23 1014.8 1013.5 0.0
20/06:00pm 27.9 22.3 8.7 30 10.8 ENE 28 37 15 20 1014.8 1013.5 0.0
20/05:30pm 28.4 22.9 9.2 30 10.9 ENE 28 39 15 21 1014.8 1013.5 0.0
20/05:00pm 27.7 21.4 9.0 31 10.5 NE 32 50 17 27 1014.9 1013.6 0.0
20/04:51pm 29.3 23.1 9.4 29 11.4 NE 32 50 17 27 1014.9 1013.6 0.0
20/04:30pm 27.5 21.2 8.9 31 10.4 NE 32 44 17 24 1015.1 1013.7 0.0
20/04:00pm 28.9 23.0 9.1 29 11.2 ENE 30 41 16 22 1015.1 1013.7 0.0
20/03:45pm 28.8 23.4 9.5 30 11.0 NE 28 46 15 25 1015.3 1013.9 0.0
20/03:30pm 28.3 22.7 8.6 29 11.0 NE 28 41 15 22 1015.5 1014.1 0.0
20/03:10pm 27.8 22.3 9.1 31 10.5 ENE 28 48 15 26 1015.4 1014.0 0.0
20/03:00pm 29.4 24.9 10.0 30 11.2 NE 24 32 13 17 1015.7 1014.3 0.0
20/02:30pm 27.5 22.2 9.8 33 10.1 NE 28 43 15 23 1015.9 1014.5 0.0
20/02:00pm 28.5 23.3 10.2 32 10.5 NE 28 39 15 21 1016.2 1014.9 0.0
20/01:30pm 29.1 24.7 11.6 33 10.3 NE 26 39 14 21 1016.5 1015.2 0.0
20/01:00pm 27.8 23.0 11.8 37 9.4 NE 28 43 15 23 1016.8 1015.5 0.0
20/12:31pm 27.7 22.2 11.7 37 9.4 NE 32 50 17 27 1017.2 1015.8 0.0
20/12:30pm 27.6 22.0 12.0 38 9.2 NE 33 50 18 27 1017.2 1015.8 0.0
20/12:23pm 27.5 22.3 11.5 37 9.4 NE 30 50 16 27 1017.1 1015.7 0.0
20/12:00pm 26.8 20.9 11.3 38 9.0 NE 33 46 18 25 1017.3 1015.9 0.0
20/11:30am 26.1 21.0 11.8 41 8.4 NE 30 48 16 26 1017.7 1016.3 0.0
20/11:23am 27.3 22.4 13.6 43 8.3 NE 32 50 17 27 1017.8 1016.5 0.0
20/11:00am 25.6 20.1 12.4 43 7.8 NE 33 46 18 25 1017.8 1016.5 0.0
20/10:30am 25.3 21.0 13.2 47 7.2 ENE 28 41 15 22 1018.1 1016.8 0.0
20/10:00am 24.9 19.6 12.5 46 7.3 NE 32 41 17 22 1018.0 1016.7 0.0
20/09:30am 24.3 19.1 13.5 51 6.4 ENE 33 44 18 24 1018.1 1016.8 0.0
20/09:00am 22.3 16.4 12.5 53 5.7 NE 35 46 19 25 1017.8 1016.5 0.0
20/08:30am 22.4 15.7 12.4 53 5.8 NE 39 54 21 29 1017.9 1016.6 0.0
20/08:00am 20.0 14.5 12.3 61 4.4 ENE 33 46 18 25 1017.7 1016.3 0.0
20/07:30am 19.9 13.5 11.9 60 4.6 ENE 37 48 20 26 1017.5 1016.1 0.0
20/07:00am 19.3 12.8 11.6 61 4.3 ENE 37 50 20 27 1017.2 1015.8 0.0
20/06:30am 19.1 12.9 11.4 61 4.3 ENE 35 46 19 25 1017.1 1015.7 0.0
20/06:00am 19.2 13.0 11.3 60 4.4 ENE 35 44 19 24 1016.8 1015.5 0.0
20/05:30am 19.5 13.6 11.0 58 4.7 ENE 33 43 18 23 1016.5 1015.2 0.0
20/05:00am 19.8 13.5 11.0 57 4.9 ENE 35 43 19 23 1016.4 1015.1 0.0
20/04:30am 20.0 13.6 10.7 55 5.2 ENE 35 44 19 24 1016.1 1014.7 0.0
20/04:00am 20.4 13.6 10.5 53 5.5 ENE 37 50 20 27 1016.0 1014.6 0.0
20/03:30am 20.8 13.2 10.6 52 5.7 ENE 41 54 22 29 1015.9 1014.5 0.0
20/03:00am 20.6 13.0 10.4 52 5.7 ENE 41 50 22 27 1015.9 1014.5 0.0
20/02:30am 20.5 13.5 10.0 51 5.8 ENE 37 48 20 26 1016.0 1014.6 0.0
20/02:00am 20.7 13.2 9.6 49 6.1 ENE 39 50 21 27 1015.9 1014.5 0.0
20/01:30am 20.9 13.8 9.5 48 6.2 ENE 37 52 20 28 1015.8 1014.4 0.0
20/01:00am 21.1 15.0 9.7 48 6.3 ENE 32 43 17 23 1015.8 1014.4 0.0
20/12:30am 21.2 14.9 9.8 48 6.3 ENE 33 43 18 23 1015.9 1014.5 0.0
20/12:00am 21.1 14.8 9.7 48 6.3 ENE 33 43 18 23 1015.8 1014.4 0.0
 
Date/Time
CDT
Temp
°C
App
Temp
°C
Dew
Point
°C
Rel
Hum
%
Delta-T
°C
Wind Press
QNH
hPa
Press
MSL
hPa
Rain since
9am
mm
Dir  Spd
km/h
Gust
km/h
Spd
kts
Gust
kts
19/11:30pm 21.1 15.0 9.7 48 6.3 ENE 32 44 17 24 1015.8 1014.4 0.0
19/11:00pm 21.3 15.5 9.5 47 6.5 ENE 30 39 16 21 1015.9 1014.5 0.0
19/10:30pm 21.7 16.2 9.3 45 6.8 ENE 28 37 15 20 1015.9 1014.5 0.0
19/10:00pm 22.0 16.5 9.2 44 7.0 ENE 28 43 15 23 1015.7 1014.3 0.0
19/09:30pm 22.3 16.9 9.5 44 7.1 ENE 28 37 15 20 1015.4 1014.0 0.0
19/09:00pm 22.3 17.0 9.8 45 6.9 ENE 28 35 15 19 1015.4 1014.0 0.0
19/08:30pm 22.5 18.3 9.6 44 7.1 E 22 32 12 17 1015.4 1014.0 0.0
19/08:00pm 23.0 19.2 9.8 43 7.4 E 20 26 11 14 1015.4 1014.0 0.0
19/07:30pm 24.1 20.2 9.3 39 8.2 ENE 20 28 11 15 1015.2 1013.8 0.0
19/07:00pm 25.0 21.1 9.3 37 8.8 ENE 20 32 11 17 1014.8 1013.5 0.0
19/06:30pm 25.7 21.3 9.1 35 9.3 ENE 22 32 12 17 1014.7 1013.4 0.0
19/06:00pm 25.8 21.4 8.8 34 9.4 ENE 22 33 12 18 1014.6 1013.3 0.0
19/05:30pm 26.0 21.4 8.0 32 9.9 ENE 22 32 12 17 1014.6 1013.3 0.0
19/05:00pm 26.4 20.3 8.4 32 10.0 NE 30 43 16 23 1014.5 1013.2 0.0
19/04:30pm 26.9 22.0 8.4 31 10.3 NE 24 35 13 19 1014.5 1013.2 0.0
19/04:00pm 26.2 21.4 8.7 33 9.7 ENE 24 35 13 19 1014.8 1013.5 0.0
19/03:30pm 26.3 22.0 9.2 34 9.6 ENE 22 37 12 20 1015.2 1013.8 0.0
19/03:00pm 26.9 23.1 9.7 34 9.8 NE 20 32 11 17 1015.6 1014.2 0.0
19/02:30pm 26.7 23.0 10.0 35 9.5 E 20 33 11 18 1016.1 1014.7 0.0
19/02:00pm 25.6 21.5 10.2 38 8.8 E 22 35 12 19 1016.4 1015.1 0.0
19/01:30pm 24.8 20.8 10.3 40 8.2 NE 22 33 12 18 1016.6 1015.3 0.0
19/01:00pm 24.2 19.7 10.1 41 7.9 ENE 24 35 13 19 1016.6 1015.3 0.0
19/12:30pm 24.1 19.9 11.1 44 7.4 ENE 24 33 13 18 1016.8 1015.5 0.0
19/12:00pm 23.4 19.0 11.8 48 6.7 ENE 26 41 14 22 1016.9 1015.6 0.0
19/11:30am 22.8 18.6 12.4 52 6.0 ENE 26 33 14 18 1017.1 1015.7 0.0
19/11:00am 22.3 19.3 13.6 58 5.2 ENE 22 30 12 16 1017.2 1015.8 0.0
19/10:30am 21.5 18.9 14.9 66 4.0 ENE 22 32 12 17 1017.1 1015.7 0.0
19/10:00am 20.4 17.0 14.7 70 3.4 ENE 26 35 14 19 1016.8 1015.5 0.0
19/09:30am 19.4 16.6 15.3 77 2.5 ENE 24 32 13 17 1016.8 1015.5 0.0
19/09:00am 18.2 15.9 15.8 86 1.5 E 22 30 12 16 1016.8 1015.5 0.2
19/08:30am 16.6 15.0 16.4 99 0.1 E 20 28 11 15 1016.5 1015.2 0.2
19/08:00am 14.9 12.3 14.9 100 0.0 E 22 33 12 18 1016.2 1014.9 0.2
19/07:30am 14.2 11.0 14.2 100 0.0 ESE 24 32 13 17 1016.1 1014.7 0.2
19/07:00am 13.3 9.0 13.3 100 0.0 ESE 28 35 15 19 1015.7 1014.3 0.2
19/06:30am 12.8 8.4 12.8 100 0.0 ESE 28 35 15 19 1015.3 1013.9 0.2
19/06:00am 12.7 8.6 12.7 100 0.0 ESE 26 32 14 17 1015.4 1014.0 0.0
19/05:30am 13.3 9.0 13.3 100 0.0 ESE 28 33 15 18 1014.8 1013.5 0.0
19/05:00am 13.3 9.4 13.3 100 0.0 ESE 26 30 14 16 1014.8 1013.5 0.0
19/04:30am 13.1 9.1 13.1 100 0.0 ESE 26 32 14 17 1015.1 1013.7 0.0
19/04:00am 13.0 9.4 13.0 100 0.0 SE 24 28 13 15 1015.1 1013.7 0.0
19/03:30am 12.8 9.5 12.8 100 0.0 SE 22 28 12 15 1014.6 1013.3 0.0
19/03:00am 12.7 9.0 12.7 100 0.0 SE 24 28 13 15 1014.4 1013.0 0.0
19/02:30am 12.6 8.9 12.6 100 0.0 SE 24 30 13 16 1014.5 1013.2 0.0
19/02:00am 12.4 8.6 12.4 100 0.0 SE 24 32 13 17 1014.5 1013.2 0.0
19/01:30am 12.2 8.3 12.2 100 0.0 SE 24 33 13 18 1014.8 1013.5 0.0
19/01:00am 12.2 8.3 12.2 100 0.0 SE 24 35 13 19 1015.2 1013.8 0.0
19/12:30am 12.1 8.2 12.1 100 0.0 SE 24 33 13 18 1015.3 1013.9 0.0
19/12:00am 12.0 7.7 12.0 100 0.0 SE 26 33 14 18 1015.4 1014.0 0.0
 
Date/Time
CDT
Temp
°C
App
Temp
°C
Dew
Point
°C
Rel
Hum
%
Delta-T
°C
Wind Press
QNH
hPa
Press
MSL
hPa
Rain since
9am
mm
Dir  Spd
km/h
Gust
km/h
Spd
kts
Gust
kts
18/11:30pm 12.1 8.6 12.1 100 0.0 SE 22 32 12 17 1015.7 1014.3 0.0
18/11:00pm 12.2 7.9 12.2 100 0.0 SE 26 37 14 20 1015.7 1014.3 0.0
18/10:30pm 12.3 8.8 12.3 100 0.0 SE 22 32 12 17 1015.7 1014.3 0.0
18/10:00pm 12.5 8.7 12.5 100 0.0 SE 24 33 13 18 1015.6 1014.2 0.0
18/09:30pm 13.1 9.1 13.1 100 0.0 SE 26 37 14 20 1015.5 1014.1 0.0
18/09:00pm 13.8 10.8 13.8 100 0.0 SE 22 33 12 18 1015.2 1013.8 0.0
18/08:30pm 14.3 11.0 14.1 99 0.1 SE 24 32 13 17 1015.1 1013.7 0.0
18/08:00pm 15.3 13.5 14.5 95 0.5 SE 17 24 9 13 1015.1 1013.7 0.0
18/07:30pm 16.6 14.1 14.1 85 1.5 SE 20 28 11 15 1015.2 1013.8 0.0
18/07:00pm 18.1 15.7 13.8 76 2.5 SE 19 28 10 15 1014.9 1013.6 0.0
18/06:30pm 18.5 16.3 13.4 72 3.0 SE 17 26 9 14 1014.8 1013.5 0.0
18/06:00pm 18.4 16.3 12.4 68 3.4 ESE 15 20 8 11 1014.6 1013.3 0.0
18/05:30pm 18.9 16.6 11.7 63 4.1 ESE 15 22 8 12 1014.5 1013.2 0.0
18/05:00pm 18.8 15.3 10.9 60 4.4 ESE 20 30 11 16 1014.6 1013.3 0.0
18/04:30pm 20.0 17.9 12.3 61 4.4 SE 15 22 8 12 1014.9 1013.6 0.0
18/04:00pm 19.4 16.9 12.4 64 4.0 SE 17 24 9 13 1015.1 1013.7 0.0
18/03:30pm 18.3 16.1 12.1 67 3.5 SE 15 22 8 12 1015.5 1014.1 0.0
18/03:00pm 17.6 15.1 12.3 71 3.0 ESE 17 26 9 14 1015.6 1014.2 0.0
18/02:30pm 18.2 16.3 12.9 71 3.0 ESE 15 22 8 12 1015.7 1014.3 0.0
18/02:00pm 17.2 15.7 13.1 77 2.4 SSE 13 19 7 10 1015.9 1014.5 0.0
18/01:30pm 17.7 16.2 13.2 75 2.6 SSE 13 19 7 10 1016.0 1014.6 0.0
18/01:00pm 16.4 15.0 13.5 83 1.7 SSE 13 17 7 9 1016.3 1015.0 0.0
18/12:30pm 15.4 14.5 13.8 90 0.9 E 11 19 6 10 1016.3 1015.0 0.0
18/12:00pm 15.0 14.4 14.5 97 0.3 SSE 11 15 6 8 1016.4 1015.1 0.0
18/11:30am 14.3 13.2 14.3 100 0.0 SSE 13 17 7 9 1016.3 1015.0 0.0
18/11:00am 14.5 14.2 14.5 100 0.0 SSE 9 13 5 7 1016.5 1015.2 0.0
18/10:30am 13.9 13.4 13.9 100 0.0 ESE 9 15 5 8 1016.4 1015.1 0.0
18/10:00am 13.8 12.9 13.8 100 0.0 SE 11 15 6 8 1016.1 1014.7 0.0
18/09:30am 13.1 11.2 13.1 100 0.0 ESE 15 22 8 12 1015.8 1014.4 0.0
18/09:00am 12.4 10.7 12.4 100 0.0 SE 13 20 7 11 1015.7 1014.3 2.8
18/08:30am 12.1 9.5 12.1 100 0.0 ESE 17 22 9 12 1015.5 1014.1 2.8
18/08:00am 11.8 9.9 11.8 100 0.0 ESE 13 19 7 10 1015.7 1014.3 2.8
18/07:30am 11.8 11.0 11.8 100 0.0 SE 7 11 4 6 1015.5 1014.1 2.6
18/07:00am 11.5 10.3 11.5 100 0.0 SSE 9 13 5 7 1015.2 1013.8 2.6
18/06:30am 11.5 10.6 11.5 100 0.0 SE 7 11 4 6 1014.7 1013.4 2.6
18/06:00am 11.5 10.3 11.5 100 0.0 SW 9 13 5 7 1014.4 1013.0 2.6
18/05:30am 11.5 10.3 11.5 100 0.0 SSW 9 11 5 6 1014.2 1012.8 2.6
18/05:00am 11.5 10.3 11.5 100 0.0 SW 9 15 5 8 1014.0 1012.6 2.6
18/04:30am 11.4 10.1 11.4 100 0.0 SSE 9 17 5 9 1013.7 1012.3 2.6
18/04:00am 11.4 9.0 11.4 100 0.0 SSE 15 20 8 11 1013.5 1012.1 2.6

Other Formats:

Comma delimited format used in spreadsheet applications
http://www.bom.gov.au/fwo/IDS60801/IDS60801.94678.axf

JavaScript Object Notation format (JSON) in row-major order
http://www.bom.gov.au/fwo/IDS60801/IDS60801.94678.json